sensor_id;sensor_type;location;lat;lon;timestamp;pressure;altitude;pressure_sealevel;temperature;humidity
19508;BME280;40157;42.566;27.526;2023-03-18T00:01:04;101559.66;;;8.87;52.28
19508;BME280;40157;42.566;27.526;2023-03-18T00:03:07;101552.63;;;8.84;52.59
19508;BME280;40157;42.566;27.526;2023-03-18T00:05:08;101551.66;;;8.82;52.52
19508;BME280;40157;42.566;27.526;2023-03-18T00:07:10;101553.16;;;8.76;51.92
19508;BME280;40157;42.566;27.526;2023-03-18T00:09:11;101528.25;;;8.61;51.59
19508;BME280;40157;42.566;27.526;2023-03-18T00:11:15;101548.78;;;8.75;51.94
19508;BME280;40157;42.566;27.526;2023-03-18T00:13:15;101554.66;;;8.69;51.95
19508;BME280;40157;42.566;27.526;2023-03-18T00:15:17;101548.66;;;8.72;52.08
19508;BME280;40157;42.566;27.526;2023-03-18T00:17:18;101517.50;;;8.54;52.28
19508;BME280;40157;42.566;27.526;2023-03-18T00:19:19;101528.13;;;8.58;51.83
19508;BME280;40157;42.566;27.526;2023-03-18T00:21:19;101536.19;;;8.64;52.95
19508;BME280;40157;42.566;27.526;2023-03-18T00:23:20;101469.22;;;8.21;53.15
19508;BME280;40157;42.566;27.526;2023-03-18T00:25:22;101525.28;;;8.52;52.82
19508;BME280;40157;42.566;27.526;2023-03-18T00:27:22;101527.72;;;8.47;52.00
19508;BME280;40157;42.566;27.526;2023-03-18T00:29:23;101496.16;;;8.20;49.82
19508;BME280;40157;42.566;27.526;2023-03-18T00:31:25;101502.94;;;8.15;50.08
19508;BME280;40157;42.566;27.526;2023-03-18T00:33:26;101505.31;;;8.31;50.62
19508;BME280;40157;42.566;27.526;2023-03-18T00:35:28;101522.94;;;8.37;50.52
19508;BME280;40157;42.566;27.526;2023-03-18T00:37:34;101450.44;;;7.85;51.06
19508;BME280;40157;42.566;27.526;2023-03-18T00:39:35;101439.31;;;7.90;50.97
19508;BME280;40157;42.566;27.526;2023-03-18T00:41:38;101521.31;;;8.41;51.01
19508;BME280;40157;42.566;27.526;2023-03-18T00:43:44;101458.25;;;8.07;51.19
19508;BME280;40157;42.566;27.526;2023-03-18T00:46:04;101424.31;;;7.85;50.95
19508;BME280;40157;42.566;27.526;2023-03-18T00:48:07;101473.16;;;8.10;50.56
19508;BME280;40157;42.566;27.526;2023-03-18T00:50:09;101519.41;;;8.58;50.65
19508;BME280;40157;42.566;27.526;2023-03-18T00:52:10;101450.94;;;8.21;50.90
19508;BME280;40157;42.566;27.526;2023-03-18T00:54:12;101426.25;;;8.13;50.22
19508;BME280;40157;42.566;27.526;2023-03-18T00:56:19;101488.44;;;8.46;50.25
19508;BME280;40157;42.566;27.526;2023-03-18T00:58:19;101532.13;;;8.73;50.22
19508;BME280;40157;42.566;27.526;2023-03-18T01:00:20;101461.09;;;8.36;49.96
19508;BME280;40157;42.566;27.526;2023-03-18T01:02:21;101494.25;;;8.61;49.95
19508;BME280;40157;42.566;27.526;2023-03-18T01:04:22;101529.97;;;8.85;50.10
19508;BME280;40157;42.566;27.526;2023-03-18T01:06:30;101527.25;;;8.82;49.94
19508;BME280;40157;42.566;27.526;2023-03-18T01:08:31;101529.84;;;8.82;49.59
19508;BME280;40157;42.566;27.526;2023-03-18T01:10:31;101555.28;;;8.86;49.42
19508;BME280;40157;42.566;27.526;2023-03-18T01:12:32;101514.84;;;8.76;49.19
19508;BME280;40157;42.566;27.526;2023-03-18T01:14:34;101514.78;;;8.75;49.23
19508;BME280;40157;42.566;27.526;2023-03-18T01:16:35;101531.69;;;8.84;48.91
19508;BME280;40157;42.566;27.526;2023-03-18T01:18:37;101523.91;;;8.86;48.77
19508;BME280;40157;42.566;27.526;2023-03-18T01:20:37;101544.22;;;8.93;48.38
19508;BME280;40157;42.566;27.526;2023-03-18T01:22:38;101532.03;;;8.94;48.33
19508;BME280;40157;42.566;27.526;2023-03-18T01:24:40;101529.84;;;8.82;47.80
19508;BME280;40157;42.566;27.526;2023-03-18T01:26:41;101541.53;;;8.92;47.73
19508;BME280;40157;42.566;27.526;2023-03-18T01:28:41;101545.97;;;8.94;47.18
19508;BME280;40157;42.566;27.526;2023-03-18T01:30:42;101540.81;;;8.96;46.89
19508;BME280;40157;42.566;27.526;2023-03-18T01:32:43;101533.69;;;8.92;46.65
19508;BME280;40157;42.566;27.526;2023-03-18T01:34:44;101496.81;;;8.60;46.10
19508;BME280;40157;42.566;27.526;2023-03-18T01:36:44;101511.13;;;8.69;46.45
19508;BME280;40157;42.566;27.526;2023-03-18T01:38:45;101535.81;;;8.78;46.05
19508;BME280;40157;42.566;27.526;2023-03-18T01:40:46;101569.69;;;8.75;45.78
19508;BME280;40157;42.566;27.526;2023-03-18T01:43:13;101371.69;;;7.74;45.65
19508;BME280;40157;42.566;27.526;2023-03-18T01:45:17;101510.75;;;8.60;45.78
19508;BME280;40157;42.566;27.526;2023-03-18T01:47:18;101523.28;;;8.69;45.46
19508;BME280;40157;42.566;27.526;2023-03-18T01:49:49;101506.47;;;8.62;45.38
19508;BME280;40157;42.566;27.526;2023-03-18T01:51:56;101518.59;;;8.60;45.03
19508;BME280;40157;42.566;27.526;2023-03-18T01:53:59;101543.44;;;8.72;45.27
19508;BME280;40157;42.566;27.526;2023-03-18T01:56:03;101513.16;;;8.54;45.59
19508;BME280;40157;42.566;27.526;2023-03-18T01:58:09;101540.75;;;8.70;45.58
19508;BME280;40157;42.566;27.526;2023-03-18T02:00:12;101507.91;;;8.54;45.18
19508;BME280;40157;42.566;27.526;2023-03-18T02:02:16;101533.09;;;8.75;45.14
19508;BME280;40157;42.566;27.526;2023-03-18T02:04:18;101528.63;;;8.72;45.18
19508;BME280;40157;42.566;27.526;2023-03-18T02:06:18;101534.91;;;8.77;45.11
19508;BME280;40157;42.566;27.526;2023-03-18T02:08:19;101515.28;;;8.64;45.09
19508;BME280;40157;42.566;27.526;2023-03-18T02:10:26;101519.91;;;8.72;45.24
19508;BME280;40157;42.566;27.526;2023-03-18T02:12:30;101444.50;;;8.36;45.78
19508;BME280;40157;42.566;27.526;2023-03-18T02:14:32;101505.84;;;8.68;46.08
19508;BME280;40157;42.566;27.526;2023-03-18T02:16:37;101477.59;;;8.58;46.05
19508;BME280;40157;42.566;27.526;2023-03-18T02:18:47;101456.91;;;8.41;46.07
19508;BME280;40157;42.566;27.526;2023-03-18T02:22:57;101510.38;;;8.74;46.03
19508;BME280;40157;42.566;27.526;2023-03-18T02:27:34;101511.94;;;8.68;45.58
19508;BME280;40157;42.566;27.526;2023-03-18T02:29:36;101522.75;;;8.78;45.96
19508;BME280;40157;42.566;27.526;2023-03-18T02:31:37;101535.09;;;8.82;46.30
19508;BME280;40157;42.566;27.526;2023-03-18T02:33:40;101511.81;;;8.65;45.37
19508;BME280;40157;42.566;27.526;2023-03-18T02:35:43;101488.56;;;8.49;45.25
19508;BME280;40157;42.566;27.526;2023-03-18T02:37:45;101443.75;;;8.15;45.10
19508;BME280;40157;42.566;27.526;2023-03-18T02:39:46;101483.13;;;8.43;45.12
19508;BME280;40157;42.566;27.526;2023-03-18T02:41:46;101492.38;;;8.34;45.53
19508;BME280;40157;42.566;27.526;2023-03-18T02:43:48;101514.81;;;8.52;45.30
19508;BME280;40157;42.566;27.526;2023-03-18T02:48:15;101489.75;;;8.34;45.54
19508;BME280;40157;42.566;27.526;2023-03-18T02:50:17;101497.13;;;8.45;45.49
19508;BME280;40157;42.566;27.526;2023-03-18T02:52:17;101533.69;;;8.67;45.64
19508;BME280;40157;42.566;27.526;2023-03-18T02:54:21;101526.88;;;8.71;45.31
19508;BME280;40157;42.566;27.526;2023-03-18T02:56:22;101478.47;;;8.36;45.28
19508;BME280;40157;42.566;27.526;2023-03-18T02:58:22;101540.63;;;8.67;45.25
19508;BME280;40157;42.566;27.526;2023-03-18T03:00:23;101436.81;;;8.16;45.45
19508;BME280;40157;42.566;27.526;2023-03-18T03:02:24;101518.06;;;8.69;45.50
19508;BME280;40157;42.566;27.526;2023-03-18T03:04:25;101493.34;;;8.61;45.51
19508;BME280;40157;42.566;27.526;2023-03-18T03:06:25;101494.38;;;8.64;45.00
19508;BME280;40157;42.566;27.526;2023-03-18T03:08:26;101514.06;;;8.79;45.34
19508;BME280;40157;42.566;27.526;2023-03-18T03:10:27;101530.19;;;8.91;45.26
19508;BME280;40157;42.566;27.526;2023-03-18T03:12:28;101452.09;;;8.52;45.31
19508;BME280;40157;42.566;27.526;2023-03-18T03:14:28;101514.06;;;8.79;46.00
19508;BME280;40157;42.566;27.526;2023-03-18T03:16:29;101544.44;;;8.99;45.94
19508;BME280;40157;42.566;27.526;2023-03-18T03:18:30;101521.50;;;8.92;45.93
19508;BME280;40157;42.566;27.526;2023-03-18T03:20:32;101536.69;;;9.02;46.25
19508;BME280;40157;42.566;27.526;2023-03-18T03:22:34;101545.31;;;9.00;46.15
19508;BME280;40157;42.566;27.526;2023-03-18T03:24:36;101486.69;;;8.69;46.25
19508;BME280;40157;42.566;27.526;2023-03-18T03:26:36;101523.41;;;8.96;46.51
19508;BME280;40157;42.566;27.526;2023-03-18T03:28:37;101451.97;;;8.49;46.04
19508;BME280;40157;42.566;27.526;2023-03-18T03:30:38;101497.59;;;8.81;45.46
19508;BME280;40157;42.566;27.526;2023-03-18T03:32:39;101535.91;;;9.05;45.22
19508;BME280;40157;42.566;27.526;2023-03-18T03:34:40;101535.75;;;9.00;45.52
19508;BME280;40157;42.566;27.526;2023-03-18T03:36:40;101456.75;;;8.37;45.88
19508;BME280;40157;42.566;27.526;2023-03-18T03:38:42;101543.34;;;8.93;45.83
19508;BME280;40157;42.566;27.526;2023-03-18T03:40:43;101545.22;;;8.97;46.06
19508;BME280;40157;42.566;27.526;2023-03-18T03:42:44;101537.19;;;8.92;46.25
19508;BME280;40157;42.566;27.526;2023-03-18T03:44:44;101543.28;;;8.91;46.19
19508;BME280;40157;42.566;27.526;2023-03-18T03:46:45;101537.41;;;8.98;45.80
19508;BME280;40157;42.566;27.526;2023-03-18T03:48:46;101541.81;;;8.99;45.32
19508;BME280;40157;42.566;27.526;2023-03-18T03:50:49;101489.91;;;8.62;45.60
19508;BME280;40157;42.566;27.526;2023-03-18T03:52:50;101516.59;;;8.77;45.44
19508;BME280;40157;42.566;27.526;2023-03-18T03:54:50;101554.78;;;8.96;45.44
19508;BME280;40157;42.566;27.526;2023-03-18T03:56:51;101557.91;;;8.86;45.22
19508;BME280;40157;42.566;27.526;2023-03-18T03:58:52;101528.97;;;8.81;45.15
19508;BME280;40157;42.566;27.526;2023-03-18T04:00:52;101540.31;;;8.82;45.41
19508;BME280;40157;42.566;27.526;2023-03-18T04:02:53;101528.63;;;8.72;45.36
19508;BME280;40157;42.566;27.526;2023-03-18T04:04:53;101534.72;;;8.73;45.63
19508;BME280;40157;42.566;27.526;2023-03-18T04:06:54;101558.72;;;8.85;45.16
19508;BME280;40157;42.566;27.526;2023-03-18T04:08:55;101498.25;;;8.51;44.97
19508;BME280;40157;42.566;27.526;2023-03-18T04:10:55;101555.28;;;8.86;44.92
19508;BME280;40157;42.566;27.526;2023-03-18T04:12:56;101546.28;;;8.78;44.57
19508;BME280;40157;42.566;27.526;2023-03-18T04:14:57;101545.31;;;8.76;44.86
19508;BME280;40157;42.566;27.526;2023-03-18T04:16:58;101496.03;;;8.40;44.60
19508;BME280;40157;42.566;27.526;2023-03-18T04:18:59;101548.91;;;8.78;44.28
19508;BME280;40157;42.566;27.526;2023-03-18T04:21:00;101546.97;;;8.74;44.04
19508;BME280;40157;42.566;27.526;2023-03-18T04:23:01;101547.47;;;8.63;43.30
19508;BME280;40157;42.566;27.526;2023-03-18T04:25:02;101530.06;;;8.41;43.65
19508;BME280;40157;42.566;27.526;2023-03-18T04:27:03;101455.28;;;7.98;44.15
19508;BME280;40157;42.566;27.526;2023-03-18T04:29:04;101547.06;;;8.52;44.38
19508;BME280;40157;42.566;27.526;2023-03-18T04:31:06;101554.19;;;8.57;43.92
19508;BME280;40157;42.566;27.526;2023-03-18T04:33:06;101518.56;;;8.36;43.72
19508;BME280;40157;42.566;27.526;2023-03-18T04:35:07;101513.97;;;8.30;43.75
19508;BME280;40157;42.566;27.526;2023-03-18T04:37:08;101565.41;;;8.54;43.99
19508;BME280;40157;42.566;27.526;2023-03-18T04:39:09;101502.16;;;8.18;44.03
19508;BME280;40157;42.566;27.526;2023-03-18T04:41:09;101534.75;;;8.27;44.42
19508;BME280;40157;42.566;27.526;2023-03-18T04:43:10;101563.28;;;8.44;44.69
19508;BME280;40157;42.566;27.526;2023-03-18T04:45:10;101561.53;;;8.43;44.75
19508;BME280;40157;42.566;27.526;2023-03-18T04:47:12;101561.75;;;8.49;44.82
19508;BME280;40157;42.566;27.526;2023-03-18T04:49:12;101541.03;;;8.32;44.03
19508;BME280;40157;42.566;27.526;2023-03-18T04:51:13;101567.09;;;8.52;43.21
19508;BME280;40157;42.566;27.526;2023-03-18T04:53:15;101541.09;;;8.34;42.52
19508;BME280;40157;42.566;27.526;2023-03-18T04:55:15;101572.19;;;8.49;42.44
19508;BME280;40157;42.566;27.526;2023-03-18T04:57:19;101555.19;;;8.38;42.21
19508;BME280;40157;42.566;27.526;2023-03-18T04:59:20;101558.63;;;8.37;42.09
19508;BME280;40157;42.566;27.526;2023-03-18T05:01:20;101564.81;;;8.39;42.14
19508;BME280;40157;42.566;27.526;2023-03-18T05:03:21;101561.44;;;8.41;42.16
19508;BME280;40157;42.566;27.526;2023-03-18T05:05:22;101562.25;;;8.40;42.18
19508;BME280;40157;42.566;27.526;2023-03-18T05:07:22;101562.19;;;8.39;42.30
19508;BME280;40157;42.566;27.526;2023-03-18T05:09:23;101560.06;;;8.28;42.41
19508;BME280;40157;42.566;27.526;2023-03-18T05:11:25;101543.31;;;8.23;42.25
19508;BME280;40157;42.566;27.526;2023-03-18T05:13:26;101558.13;;;8.24;42.56
19508;BME280;40157;42.566;27.526;2023-03-18T05:15:27;101500.63;;;8.00;42.91
19508;BME280;40157;42.566;27.526;2023-03-18T05:17:28;101566.81;;;8.23;41.97
19508;BME280;40157;42.566;27.526;2023-03-18T05:19:29;101568.06;;;8.10;42.33
19508;BME280;40157;42.566;27.526;2023-03-18T05:21:29;101499.22;;;7.65;42.24
19508;BME280;40157;42.566;27.526;2023-03-18T05:23:30;101448.97;;;7.27;42.81
19508;BME280;40157;42.566;27.526;2023-03-18T05:25:31;101560.13;;;7.86;42.72
19508;BME280;40157;42.566;27.526;2023-03-18T05:27:32;101552.03;;;7.80;43.06
19508;BME280;40157;42.566;27.526;2023-03-18T05:29:32;101495.16;;;7.50;43.37
19508;BME280;40157;42.566;27.526;2023-03-18T05:31:33;101556.31;;;8.43;68.80
19508;BME280;40157;42.566;27.526;2023-03-18T05:33:34;101542.09;;;8.83;68.63
19508;BME280;40157;42.566;27.526;2023-03-18T05:35:35;101556.66;;;9.00;59.72
19508;BME280;40157;42.566;27.526;2023-03-18T05:37:36;101551.97;;;9.16;56.21
19508;BME280;40157;42.566;27.526;2023-03-18T05:39:36;101556.44;;;9.18;45.35
19508;BME280;40157;42.566;27.526;2023-03-18T05:41:37;101562.44;;;9.16;43.12
19508;BME280;40157;42.566;27.526;2023-03-18T05:43:37;101548.81;;;9.00;41.17
19508;BME280;40157;42.566;27.526;2023-03-18T05:45:38;101561.84;;;8.99;41.50
19508;BME280;40157;42.566;27.526;2023-03-18T05:47:38;101572.25;;;8.97;41.68
19508;BME280;40157;42.566;27.526;2023-03-18T05:49:39;101561.47;;;8.88;41.31
19508;BME280;40157;42.566;27.526;2023-03-18T05:51:40;101549.44;;;8.93;53.23
19508;BME280;40157;42.566;27.526;2023-03-18T05:53:40;101524.50;;;9.03;61.20
19508;BME280;40157;42.566;27.526;2023-03-18T05:55:41;101563.13;;;9.34;52.23
19508;BME280;40157;42.566;27.526;2023-03-18T05:57:42;101543.69;;;9.28;48.74
19508;BME280;40157;42.566;27.526;2023-03-18T05:59:43;101542.25;;;9.37;48.19
19508;BME280;40157;42.566;27.526;2023-03-18T06:01:43;101569.47;;;9.68;46.90
19508;BME280;40157;42.566;27.526;2023-03-18T06:03:44;101569.97;;;9.84;46.30
19508;BME280;40157;42.566;27.526;2023-03-18T06:05:45;101576.41;;;9.93;44.89
19508;BME280;40157;42.566;27.526;2023-03-18T06:07:47;101562.66;;;10.00;43.84
19508;BME280;40157;42.566;27.526;2023-03-18T06:09:47;101551.50;;;10.06;45.06
19508;BME280;40157;42.566;27.526;2023-03-18T06:11:49;101551.78;;;10.15;44.33
19508;BME280;40157;42.566;27.526;2023-03-18T06:13:49;101578.59;;;10.34;43.18
19508;BME280;40157;42.566;27.526;2023-03-18T06:15:56;101576.41;;;10.21;41.78
19508;BME280;40157;42.566;27.526;2023-03-18T06:17:56;101549.44;;;9.96;42.63
19508;BME280;40157;42.566;27.526;2023-03-18T06:19:57;101591.03;;;10.14;41.60
19508;BME280;40157;42.566;27.526;2023-03-18T06:21:58;101576.94;;;10.10;42.47
19508;BME280;40157;42.566;27.526;2023-03-18T06:23:59;101588.28;;;10.09;42.31
19508;BME280;40157;42.566;27.526;2023-03-18T06:26:01;101569.69;;;10.02;42.68
19508;BME280;40157;42.566;27.526;2023-03-18T06:28:02;101589.94;;;10.07;41.85
19508;BME280;40157;42.566;27.526;2023-03-18T06:30:03;101585.38;;;10.00;41.55
19508;BME280;40157;42.566;27.526;2023-03-18T06:32:04;101558.25;;;9.72;40.59
19508;BME280;40157;42.566;27.526;2023-03-18T06:34:05;101576.41;;;9.66;40.70
19508;BME280;40157;42.566;27.526;2023-03-18T06:36:06;101548.75;;;9.49;42.41
19508;BME280;40157;42.566;27.526;2023-03-18T06:38:06;101570.38;;;9.69;43.23
19508;BME280;40157;42.566;27.526;2023-03-18T06:40:09;101572.25;;;9.73;42.92
19508;BME280;40157;42.566;27.526;2023-03-18T06:42:10;101546.63;;;9.64;42.63
19508;BME280;40157;42.566;27.526;2023-03-18T06:44:11;101557.03;;;9.61;42.19
19508;BME280;40157;42.566;27.526;2023-03-18T06:46:12;101558.69;;;9.59;42.32
19508;BME280;40157;42.566;27.526;2023-03-18T06:48:13;101532.00;;;9.43;42.64
19508;BME280;40157;42.566;27.526;2023-03-18T06:50:15;101560.47;;;9.60;46.31
19508;BME280;40157;42.566;27.526;2023-03-18T06:52:16;101566.97;;;9.71;44.38
19508;BME280;40157;42.566;27.526;2023-03-18T06:54:17;101512.06;;;9.47;44.83
19508;BME280;40157;42.566;27.526;2023-03-18T06:56:17;101551.97;;;9.67;42.62
19508;BME280;40157;42.566;27.526;2023-03-18T06:58:18;101567.69;;;9.67;42.65
19508;BME280;40157;42.566;27.526;2023-03-18T07:00:19;101559.94;;;9.70;43.24
19508;BME280;40157;42.566;27.526;2023-03-18T07:02:21;101546.47;;;9.58;43.30
19508;BME280;40157;42.566;27.526;2023-03-18T07:04:26;101569.53;;;9.70;43.05
19508;BME280;40157;42.566;27.526;2023-03-18T07:06:27;101565.19;;;9.70;43.37
19508;BME280;40157;42.566;27.526;2023-03-18T07:08:29;101565.41;;;9.76;45.06
19508;BME280;40157;42.566;27.526;2023-03-18T07:10:30;101505.72;;;9.40;42.35
19508;BME280;40157;42.566;27.526;2023-03-18T07:12:31;101572.53;;;9.55;42.32
19508;BME280;40157;42.566;27.526;2023-03-18T07:14:31;101535.91;;;9.31;43.23
19508;BME280;40157;42.566;27.526;2023-03-18T07:16:32;101575.34;;;9.35;42.60
19508;BME280;40157;42.566;27.526;2023-03-18T07:18:32;101570.97;;;9.36;43.22
19508;BME280;40157;42.566;27.526;2023-03-18T07:20:33;101573.47;;;9.31;42.58
19508;BME280;40157;42.566;27.526;2023-03-18T07:22:34;101582.19;;;9.32;42.45
19508;BME280;40157;42.566;27.526;2023-03-18T07:24:34;101547.75;;;9.19;42.32
19508;BME280;40157;42.566;27.526;2023-03-18T07:26:35;101551.97;;;9.16;42.71
19508;BME280;40157;42.566;27.526;2023-03-18T07:28:36;101556.28;;;9.14;42.00
19508;BME280;40157;42.566;27.526;2023-03-18T07:30:37;101583.94;;;9.31;43.10
19508;BME280;40157;42.566;27.526;2023-03-18T07:32:38;101575.13;;;9.29;42.37
19508;BME280;40157;42.566;27.526;2023-03-18T07:34:45;101589.16;;;9.31;43.41
19508;BME280;40157;42.566;27.526;2023-03-18T07:36:47;101560.56;;;9.12;43.18
19508;BME280;40157;42.566;27.526;2023-03-18T07:38:48;101526.09;;;8.98;43.19
19508;BME280;40157;42.566;27.526;2023-03-18T07:40:49;101590.03;;;9.32;43.28
19508;BME280;40157;42.566;27.526;2023-03-18T07:42:49;101532.41;;;9.04;42.63
19508;BME280;40157;42.566;27.526;2023-03-18T07:44:50;101567.78;;;9.19;44.38
19508;BME280;40157;42.566;27.526;2023-03-18T07:46:51;101551.78;;;9.10;44.81
19508;BME280;40157;42.566;27.526;2023-03-18T07:48:52;101565.91;;;9.15;44.97
19508;BME280;40157;42.566;27.526;2023-03-18T07:50:53;101545.50;;;9.04;43.74
19508;BME280;40157;42.566;27.526;2023-03-18T07:52:53;101581.84;;;9.21;45.05
19508;BME280;40157;42.566;27.526;2023-03-18T07:54:54;101572.91;;;9.16;44.51
19508;BME280;40157;42.566;27.526;2023-03-18T07:56:54;101577.94;;;9.10;43.92
19508;BME280;40157;42.566;27.526;2023-03-18T07:58:55;101551.81;;;8.87;43.38
19508;BME280;40157;42.566;27.526;2023-03-18T08:00:56;101595.97;;;9.02;44.04
19508;BME280;40157;42.566;27.526;2023-03-18T08:02:58;101509.25;;;8.43;44.44
19508;BME280;40157;42.566;27.526;2023-03-18T08:04:59;101488.09;;;8.37;44.19
19508;BME280;40157;42.566;27.526;2023-03-18T08:07:00;101556.69;;;8.76;44.43
19508;BME280;40157;42.566;27.526;2023-03-18T08:09:01;101583.69;;;9.01;44.80
19508;BME280;40157;42.566;27.526;2023-03-18T08:11:02;101559.03;;;8.93;45.43
19508;BME280;40157;42.566;27.526;2023-03-18T08:13:03;101522.13;;;8.85;46.56
19508;BME280;40157;42.566;27.526;2023-03-18T08:15:04;101584.16;;;9.13;44.42
19508;BME280;40157;42.566;27.526;2023-03-18T08:17:05;101578.06;;;9.13;43.56
19508;BME280;40157;42.566;27.526;2023-03-18T08:19:05;101564.91;;;9.11;43.83
19508;BME280;40157;42.566;27.526;2023-03-18T08:21:06;101559.81;;;9.16;44.73
19508;BME280;40157;42.566;27.526;2023-03-18T08:23:07;101559.09;;;9.20;44.70
19508;BME280;40157;42.566;27.526;2023-03-18T08:25:08;101593.13;;;9.45;43.31
19508;BME280;40157;42.566;27.526;2023-03-18T08:27:09;101505.34;;;9.04;45.27
19508;BME280;40157;42.566;27.526;2023-03-18T08:29:09;101591.78;;;9.57;45.50
19508;BME280;40157;42.566;27.526;2023-03-18T08:31:10;101605.31;;;9.69;44.51
19508;BME280;40157;42.566;27.526;2023-03-18T08:33:10;101558.56;;;9.56;43.89
19508;BME280;40157;42.566;27.526;2023-03-18T08:35:11;101578.69;;;9.57;43.32
19508;BME280;40157;42.566;27.526;2023-03-18T08:37:12;101577.00;;;9.59;43.39
19508;BME280;40157;42.566;27.526;2023-03-18T08:39:13;101569.16;;;9.59;44.64
19508;BME280;40157;42.566;27.526;2023-03-18T08:41:15;101590.66;;;9.74;41.96
19508;BME280;40157;42.566;27.526;2023-03-18T08:43:16;101566.50;;;9.57;43.15
19508;BME280;40157;42.566;27.526;2023-03-18T08:45:17;101570.38;;;9.69;42.81
19508;BME280;40157;42.566;27.526;2023-03-18T08:47:18;101574.81;;;9.71;43.32
19508;BME280;40157;42.566;27.526;2023-03-18T08:49:19;101595.28;;;9.83;43.30
19508;BME280;40157;42.566;27.526;2023-03-18T08:51:20;101576.91;;;9.81;43.75
19508;BME280;40157;42.566;27.526;2023-03-18T08:53:21;101599.28;;;9.99;44.71
19508;BME280;40157;42.566;27.526;2023-03-18T08:55:23;101614.41;;;10.06;43.43
19508;BME280;40157;42.566;27.526;2023-03-18T08:57:27;101582.41;;;9.89;41.88
19508;BME280;40157;42.566;27.526;2023-03-18T08:59:28;101529.38;;;9.69;42.42
19508;BME280;40157;42.566;27.526;2023-03-18T09:01:28;101580.44;;;10.09;43.35
19508;BME280;40157;42.566;27.526;2023-03-18T09:03:29;101587.91;;;10.26;43.45
19508;BME280;40157;42.566;27.526;2023-03-18T09:05:30;101585.38;;;10.29;43.41
19508;BME280;40157;42.566;27.526;2023-03-18T09:07:32;101573.34;;;10.34;42.50
19508;BME280;40157;42.566;27.526;2023-03-18T09:09:32;101583.31;;;10.44;43.44
19508;BME280;40157;42.566;27.526;2023-03-18T09:11:33;101489.81;;;9.89;40.61
19508;BME280;40157;42.566;27.526;2023-03-18T09:13:34;101579.09;;;10.49;41.06
19508;BME280;40157;42.566;27.526;2023-03-18T09:15:35;101593.38;;;10.61;42.17
19508;BME280;40157;42.566;27.526;2023-03-18T09:17:36;101604.16;;;10.70;41.12
19508;BME280;40157;42.566;27.526;2023-03-18T09:19:40;101531.50;;;10.37;42.77
19508;BME280;40157;42.566;27.526;2023-03-18T09:21:40;101508.84;;;10.39;43.18
19508;BME280;40157;42.566;27.526;2023-03-18T09:23:42;101509.31;;;10.54;43.95
19508;BME280;40157;42.566;27.526;2023-03-18T09:25:43;101577.97;;;11.02;42.86
19508;BME280;40157;42.566;27.526;2023-03-18T09:27:45;101556.06;;;11.00;44.27
19508;BME280;40157;42.566;27.526;2023-03-18T09:29:45;101562.44;;;11.09;42.85
19508;BME280;40157;42.566;27.526;2023-03-18T09:31:46;101574.59;;;11.38;43.91
19508;BME280;40157;42.566;27.526;2023-03-18T09:33:46;101565.63;;;11.29;41.66
19508;BME280;40157;42.566;27.526;2023-03-18T09:35:47;101543.66;;;11.26;41.76
19508;BME280;40157;42.566;27.526;2023-03-18T09:37:48;101573.06;;;11.46;41.69
19508;BME280;40157;42.566;27.526;2023-03-18T09:39:49;101561.75;;;11.50;40.76
19508;BME280;40157;42.566;27.526;2023-03-18T09:42:44;101578.69;;;11.61;39.91
19508;BME280;40157;42.566;27.526;2023-03-18T09:44:57;101572.66;;;11.65;40.88
19508;BME280;40157;42.566;27.526;2023-03-18T09:49:56;101562.28;;;11.70;41.14
19508;BME280;40157;42.566;27.526;2023-03-18T09:54:34;101571.16;;;11.75;40.88
19508;BME280;40157;42.566;27.526;2023-03-18T09:56:37;101568.56;;;11.77;40.32
19508;BME280;40157;42.566;27.526;2023-03-18T09:58:53;101563.28;;;11.75;41.27
19508;BME280;40157;42.566;27.526;2023-03-18T10:01:00;101569.44;;;11.76;40.99
19508;BME280;40157;42.566;27.526;2023-03-18T10:03:10;101563.47;;;11.83;41.10
19508;BME280;40157;42.566;27.526;2023-03-18T10:05:49;101556.38;;;11.80;40.62
19508;BME280;40157;42.566;27.526;2023-03-18T10:07:54;101517.88;;;11.44;41.56
19508;BME280;40157;42.566;27.526;2023-03-18T10:10:04;101566.47;;;11.63;41.95
19508;BME280;40157;42.566;27.526;2023-03-18T10:12:29;101548.72;;;11.53;41.50
19508;BME280;40157;42.566;27.526;2023-03-18T10:14:48;101559.19;;;11.52;41.70
19508;BME280;40157;42.566;27.526;2023-03-18T10:19:18;101553.72;;;11.44;41.79
19508;BME280;40157;42.566;27.526;2023-03-18T10:21:40;101546.53;;;11.37;42.74
19508;BME280;40157;42.566;27.526;2023-03-18T10:26:40;101531.13;;;11.17;43.41
19508;BME280;40157;42.566;27.526;2023-03-18T10:33:26;101548.06;;;11.28;43.21
19508;BME280;40157;42.566;27.526;2023-03-18T10:35:34;101513.75;;;11.21;41.70
19508;BME280;40157;42.566;27.526;2023-03-18T10:39:58;101536.41;;;11.52;41.94
19508;BME280;40157;42.566;27.526;2023-03-18T10:42:03;101518.81;;;11.48;41.90
19508;BME280;40157;42.566;27.526;2023-03-18T10:44:26;101531.56;;;11.68;42.01
19508;BME280;40157;42.566;27.526;2023-03-18T10:46:28;101530.06;;;11.79;42.32
19508;BME280;40157;42.566;27.526;2023-03-18T10:48:38;101503.59;;;11.70;42.66
19508;BME280;40157;42.566;27.526;2023-03-18T10:51:04;101431.84;;;11.36;42.40
19508;BME280;40157;42.566;27.526;2023-03-18T10:53:28;101520.59;;;11.85;41.72
19508;BME280;40157;42.566;27.526;2023-03-18T10:55:39;101489.81;;;11.80;43.93
19508;BME280;40157;42.566;27.526;2023-03-18T10:57:45;101484.56;;;11.80;42.55
19508;BME280;40157;42.566;27.526;2023-03-18T10:59:46;101512.25;;;12.02;41.55
19508;BME280;40157;42.566;27.526;2023-03-18T11:02:32;101439.69;;;11.69;43.81
19508;BME280;40157;42.566;27.526;2023-03-18T11:04:16;101497.44;;;12.06;42.47